Terminal Aerodrome Forecast
Issued by NWS

Home | Current Version | Previous Version | Text Only | Print | Product List | Glossary On
Versions: 1 2 3 4 5 6 7 8 9 10 11 12 13 14 15 16 17 18 19 20 21 22
000
FTUS41 KPBZ 290539
TAFFKL
TAF
KFKL 290539Z 2906/3006 00000KT 2SM BR BKN001
     FM291300 VRB03KT 5SM BR BKN015
     FM291500 35005KT P6SM BKN025
     FM291700 35005KT P6SM VCSH BKN050
      AMD LTD TO CLD VIS AND WIND=

USA.gov is the U.S. government's official web portal to all federal, state and local government web resources and services.